createdAt,value
2023-05-08T00:01:58.220Z,13.72
2023-05-08T00:04:01.079Z,13.75
2023-05-08T00:06:05.717Z,13.78
2023-05-08T00:08:08.725Z,13.80
2023-05-08T00:10:14.387Z,13.83
2023-05-08T00:12:18.332Z,13.84
2023-05-08T00:14:21.943Z,13.86
2023-05-08T00:16:25.809Z,13.89
2023-05-08T00:18:29.574Z,13.92
2023-05-08T00:20:35.183Z,13.92
2023-05-08T00:22:41.783Z,13.93
2023-05-08T00:24:45.183Z,13.93
2023-05-08T00:26:47.954Z,13.93
2023-05-08T00:28:50.727Z,13.92
2023-05-08T00:30:54.028Z,13.90
2023-05-08T00:32:56.875Z,13.88
2023-05-08T00:34:59.577Z,13.83
2023-05-08T00:37:03.772Z,13.78
2023-05-08T00:39:06.838Z,13.75
2023-05-08T00:41:10.239Z,13.72
2023-05-08T00:43:13.223Z,13.67
2023-05-08T00:45:15.992Z,13.64
2023-05-08T00:47:21.752Z,13.63
2023-05-08T00:49:26.125Z,13.64
2023-05-08T00:51:32.439Z,13.65
2023-05-08T00:53:39.351Z,13.65
2023-05-08T00:55:42.288Z,13.64
2023-05-08T00:57:47.820Z,13.65
2023-05-08T00:59:55.751Z,13.66
2023-05-08T01:01:58.840Z,13.68
2023-05-08T01:04:13.054Z,13.69
2023-05-08T01:06:15.864Z,13.69
2023-05-08T01:08:19.425Z,13.71
2023-05-08T01:10:32.972Z,13.72
2023-05-08T01:13:04.898Z,13.72
2023-05-08T01:15:17.678Z,13.73
2023-05-08T01:17:33.127Z,13.72
2023-05-08T01:20:08.608Z,13.72
2023-05-08T01:22:51.788Z,13.65
2023-05-08T01:25:42.359Z,13.55
2023-05-08T01:28:10.429Z,13.50
2023-05-08T01:32:22.443Z,13.52
2023-05-08T01:34:32.449Z,13.53
2023-05-08T01:37:08.883Z,13.54
2023-05-08T01:39:22.718Z,13.55
2023-05-08T01:41:47.852Z,13.55
2023-05-08T01:44:12.333Z,13.48
2023-05-08T01:46:20.887Z,13.44
2023-05-08T01:48:44.482Z,13.41
2023-05-08T01:50:52.711Z,13.35
2023-05-08T01:53:03.688Z,13.33
2023-05-08T01:55:11.565Z,13.34
2023-05-08T01:57:15.611Z,13.36
2023-05-08T01:59:23.462Z,13.37
2023-05-08T02:01:29.528Z,13.39
2023-05-08T02:03:35.181Z,13.41
2023-05-08T02:05:39.496Z,13.36
2023-05-08T02:08:00.591Z,13.31
2023-05-08T02:10:23.463Z,13.28
2023-05-08T02:12:29.899Z,13.27
2023-05-08T02:14:34.099Z,13.28
2023-05-08T02:16:37.899Z,13.26
2023-05-08T02:18:53.855Z,13.26
2023-05-08T02:21:01.817Z,13.26
2023-05-08T02:23:06.139Z,13.22
2023-05-08T02:25:15.345Z,13.18
2023-05-08T02:27:18.826Z,13.14
2023-05-08T02:29:26.171Z,13.11
2023-05-08T02:31:30.018Z,13.05
2023-05-08T02:33:34.215Z,13.02
2023-05-08T02:35:39.132Z,12.98
2023-05-08T02:37:48.209Z,12.99
2023-05-08T02:39:55.985Z,13.01
2023-05-08T02:41:59.729Z,13.05
2023-05-08T02:44:02.809Z,13.07
2023-05-08T02:46:28.899Z,13.08
2023-05-08T02:48:38.053Z,13.05
2023-05-08T02:50:56.482Z,13.00
2023-05-08T02:53:06.554Z,12.99
2023-05-08T02:55:19.921Z,12.95
2023-05-08T02:57:48.764Z,12.92
2023-05-08T03:00:04.555Z,12.86
2023-05-08T03:02:22.238Z,12.81
2023-05-08T03:04:36.588Z,12.78
2023-05-08T03:06:44.328Z,12.76
2023-05-08T03:08:50.615Z,12.73
2023-05-08T03:10:58.124Z,12.68
2023-05-08T03:13:05.133Z,12.64
2023-05-08T03:15:37.712Z,12.61
2023-05-08T03:17:44.922Z,12.59
2023-05-08T03:19:52.495Z,12.57
2023-05-08T03:21:59.042Z,12.54
2023-05-08T03:24:04.518Z,12.49
2023-05-08T03:26:10.421Z,12.43
2023-05-08T03:28:13.398Z,12.37
2023-05-08T03:30:16.681Z,12.31
2023-05-08T03:32:24.531Z,12.26
2023-05-08T03:34:30.101Z,12.24
2023-05-08T03:36:33.272Z,12.22
2023-05-08T03:38:44.088Z,12.20
2023-05-08T03:40:47.949Z,12.16
2023-05-08T03:42:52.561Z,12.14
2023-05-08T03:44:55.337Z,12.09
2023-05-08T03:46:59.720Z,12.06
2023-05-08T03:49:04.781Z,12.05
2023-05-08T03:51:08.410Z,12.02
2023-05-08T03:53:14.504Z,12.01
2023-05-08T03:55:17.841Z,12.01
2023-05-08T03:57:21.951Z,12.02
2023-05-08T03:59:38.791Z,12.04
2023-05-08T04:02:15.069Z,12.11
2023-05-08T04:04:24.392Z,12.14
2023-05-08T04:07:06.362Z,12.16
2023-05-08T04:09:31.500Z,12.16
2023-05-08T04:12:16.592Z,12.14
2023-05-08T04:14:24.869Z,12.10
2023-05-08T04:16:29.761Z,12.05
2023-05-08T04:18:38.959Z,12.00
2023-05-08T04:20:46.339Z,11.97
2023-05-08T04:22:52.618Z,11.93
2023-05-08T04:24:59.442Z,11.90
2023-05-08T04:27:03.328Z,11.89
2023-05-08T04:29:07.690Z,11.92
2023-05-08T04:31:11.770Z,11.93
2023-05-08T04:33:16.607Z,11.92
2023-05-08T04:35:19.879Z,11.92
2023-05-08T04:37:28.424Z,11.90
2023-05-08T04:39:34.068Z,11.86
2023-05-08T04:41:37.080Z,11.82
2023-05-08T04:43:40.258Z,11.79
2023-05-08T04:45:48.375Z,11.77
2023-05-08T04:47:51.660Z,11.76
2023-05-08T04:49:56.553Z,11.75
2023-05-08T04:52:01.061Z,11.73
2023-05-08T04:54:03.830Z,11.73
2023-05-08T04:56:06.806Z,11.75
2023-05-08T04:58:11.426Z,11.77
2023-05-08T05:00:15.247Z,11.80
2023-05-08T05:02:19.454Z,11.82
2023-05-08T05:04:24.421Z,11.84
2023-05-08T05:06:27.603Z,11.84
2023-05-08T05:08:30.741Z,11.85
2023-05-08T05:10:33.781Z,11.86
2023-05-08T05:12:38.891Z,11.87
2023-05-08T05:14:42.398Z,11.85
2023-05-08T05:16:45.202Z,11.82
2023-05-08T05:18:47.816Z,11.82
2023-05-08T05:20:50.373Z,11.82
2023-05-08T05:22:53.560Z,11.85
2023-05-08T05:24:58.032Z,11.93
2023-05-08T05:27:01.263Z,11.97
2023-05-08T05:29:04.482Z,12.00
2023-05-08T05:31:07.763Z,12.02
2023-05-08T05:33:10.354Z,12.10
2023-05-08T05:35:13.516Z,12.15
2023-05-08T05:37:17.787Z,12.21
2023-05-08T05:39:20.617Z,12.22
2023-05-08T05:41:24.430Z,12.22
2023-05-08T05:43:27.108Z,12.26
2023-05-08T05:45:33.317Z,12.26
2023-05-08T05:47:36.951Z,12.26
2023-05-08T05:49:43.007Z,12.25
2023-05-08T05:51:46.551Z,12.25
2023-05-08T05:53:51.199Z,12.27
2023-05-08T05:55:54.854Z,12.26
2023-05-08T05:57:57.800Z,12.29
2023-05-08T06:00:00.930Z,12.33
2023-05-08T06:02:04.884Z,12.38
2023-05-08T06:04:07.756Z,12.40
2023-05-08T06:06:12.494Z,12.46
2023-05-08T06:08:17.398Z,12.47
2023-05-08T06:10:20.435Z,12.47
2023-05-08T06:12:23.670Z,12.46
2023-05-08T06:14:26.761Z,12.45
2023-05-08T06:16:30.674Z,12.47
2023-05-08T06:18:33.934Z,12.47
2023-05-08T06:20:38.901Z,12.49
2023-05-08T06:22:42.046Z,12.49
2023-05-08T06:24:45.558Z,12.51
2023-05-08T06:26:48.050Z,12.55
2023-05-08T06:28:50.864Z,12.60
2023-05-08T06:30:54.628Z,12.65
2023-05-08T06:32:57.512Z,12.70
2023-05-08T06:35:00.588Z,12.73
2023-05-08T06:37:03.155Z,12.76
2023-05-08T06:39:06.939Z,12.81
2023-05-08T06:41:10.001Z,12.89
2023-05-08T06:43:14.201Z,12.96
2023-05-08T06:45:16.844Z,13.02
2023-05-08T06:47:20.845Z,13.09
2023-05-08T06:49:24.824Z,13.16
2023-05-08T06:51:27.296Z,13.20
2023-05-08T06:53:30.279Z,13.26
2023-05-08T06:55:33.420Z,13.33
2023-05-08T06:57:36.276Z,13.39
2023-05-08T06:59:38.972Z,13.42
2023-05-08T07:01:41.784Z,13.43
2023-05-08T07:03:46.328Z,13.48
2023-05-08T07:05:49.253Z,13.55
2023-05-08T07:07:54.133Z,13.60
2023-05-08T07:09:56.709Z,13.67
2023-05-08T07:11:59.312Z,13.72
2023-05-08T07:14:02.007Z,13.80
2023-05-08T07:16:14.833Z,13.88
2023-05-08T07:18:17.454Z,13.95
2023-05-08T07:20:21.860Z,14.02
2023-05-08T07:22:24.638Z,14.10
2023-05-08T07:24:29.001Z,14.16
2023-05-08T07:26:31.911Z,14.22
2023-05-08T07:28:34.971Z,14.27
2023-05-08T07:30:37.815Z,14.32
2023-05-08T07:32:41.478Z,14.39
2023-05-08T07:34:44.610Z,14.45
2023-05-08T07:36:47.708Z,14.50
2023-05-08T07:38:50.942Z,14.57
2023-05-08T07:40:57.114Z,14.63
2023-05-08T07:42:59.989Z,14.70
2023-05-08T07:45:04.224Z,14.77
2023-05-08T07:47:07.100Z,14.84
2023-05-08T07:49:10.135Z,14.92
2023-05-08T07:51:15.074Z,14.98
2023-05-08T07:53:18.168Z,15.04
2023-05-08T07:55:21.805Z,15.04
2023-05-08T07:57:24.881Z,15.04
2023-05-08T07:59:27.462Z,15.06
2023-05-08T08:01:30.381Z,15.08
2023-05-08T08:03:33.861Z,15.12
2023-05-08T08:05:36.727Z,15.16
2023-05-08T08:07:39.497Z,15.19
2023-05-08T08:09:43.216Z,15.23
2023-05-08T08:11:45.824Z,15.26
2023-05-08T08:13:49.606Z,15.28
2023-05-08T08:15:53.352Z,15.28
2023-05-08T08:17:56.205Z,15.31
2023-05-08T08:19:59.013Z,15.38
2023-05-08T08:22:01.778Z,15.42
2023-05-08T08:24:04.730Z,15.45
2023-05-08T08:26:07.769Z,15.47
2023-05-08T08:28:13.000Z,15.52
2023-05-08T08:30:18.240Z,15.54
2023-05-08T08:32:21.528Z,15.56
2023-05-08T08:34:25.906Z,15.64
2023-05-08T08:36:28.580Z,15.69
2023-05-08T08:38:31.704Z,15.73
2023-05-08T08:40:39.280Z,15.73
2023-05-08T08:42:44.652Z,15.73
2023-05-08T08:44:47.281Z,15.73
2023-05-08T08:46:53.092Z,15.75
2023-05-08T08:48:56.444Z,15.79
2023-05-08T08:51:02.798Z,15.78
2023-05-08T08:53:11.714Z,15.82
2023-05-08T08:55:22.017Z,15.82
2023-05-08T08:57:29.659Z,15.84
2023-05-08T08:59:34.320Z,15.85
2023-05-08T09:01:41.458Z,15.85
2023-05-08T09:03:47.644Z,15.84
2023-05-08T09:05:54.219Z,15.83
2023-05-08T09:07:58.343Z,15.87
2023-05-08T09:10:02.282Z,15.88
2023-05-08T09:12:06.314Z,15.90
2023-05-08T09:14:09.824Z,15.95
2023-05-08T09:16:12.979Z,16.05
2023-05-08T09:18:16.661Z,16.15
2023-05-08T09:20:19.672Z,16.24
2023-05-08T09:22:23.734Z,16.34
2023-05-08T09:24:29.118Z,16.43
2023-05-08T09:26:38.321Z,16.53
2023-05-08T09:28:41.096Z,16.64
2023-05-08T09:30:57.151Z,16.71
2023-05-08T09:33:03.195Z,16.73
2023-05-08T09:35:08.175Z,16.73
2023-05-08T09:37:13.896Z,16.72
2023-05-08T09:39:24.215Z,16.74
2023-05-08T09:41:29.140Z,16.77
2023-05-08T09:43:31.804Z,16.73
2023-05-08T09:45:38.833Z,16.74
2023-05-08T09:47:48.646Z,16.78
2023-05-08T09:50:04.690Z,16.83
2023-05-08T09:52:08.400Z,16.86
2023-05-08T09:54:18.142Z,16.88
2023-05-08T09:56:41.068Z,16.93
2023-05-08T09:58:47.948Z,17.01
2023-05-08T10:00:51.460Z,17.07
2023-05-08T10:02:58.598Z,17.10
2023-05-08T10:05:02.291Z,17.15
2023-05-08T10:07:05.977Z,17.20
2023-05-08T10:09:19.390Z,17.23
2023-05-08T10:11:22.462Z,17.24
2023-05-08T10:13:26.244Z,17.31
2023-05-08T10:15:31.834Z,17.37
2023-05-08T10:17:57.408Z,17.44
2023-05-08T10:20:07.774Z,17.54
2023-05-08T10:22:11.977Z,17.64
2023-05-08T10:24:17.611Z,17.71
2023-05-08T10:26:26.140Z,17.77
2023-05-08T10:28:34.867Z,17.83
2023-05-08T10:30:44.031Z,17.87
2023-05-08T10:32:52.053Z,17.92
2023-05-08T10:34:59.465Z,17.99
2023-05-08T10:37:04.338Z,18.03
2023-05-08T10:39:07.646Z,18.03
2023-05-08T10:41:11.479Z,18.08
2023-05-08T10:43:14.540Z,18.11
2023-05-08T10:45:17.867Z,18.17
2023-05-08T10:47:45.732Z,18.23
2023-05-08T10:50:06.222Z,18.20
2023-05-08T10:52:23.134Z,18.22
2023-05-08T10:55:04.521Z,18.24
2023-05-08T10:57:12.584Z,18.27
2023-05-08T10:59:20.502Z,18.27
2023-05-08T11:01:25.450Z,18.27
2023-05-08T11:03:32.740Z,18.28
2023-05-08T11:05:51.615Z,18.34
2023-05-08T11:08:01.228Z,18.40
2023-05-08T11:10:13.631Z,18.44
2023-05-08T11:12:26.860Z,18.45
2023-05-08T11:14:31.611Z,18.48
2023-05-08T11:16:56.334Z,18.52
2023-05-08T11:19:21.735Z,18.52
2023-05-08T11:21:26.447Z,18.51
2023-05-08T11:23:32.046Z,18.56
2023-05-08T11:25:44.875Z,18.65
2023-05-08T11:27:51.271Z,18.74
2023-05-08T11:30:26.456Z,18.80
2023-05-08T11:33:13.356Z,18.81
2023-05-08T11:35:45.230Z,18.84
2023-05-08T11:38:19.870Z,18.87
2023-05-08T11:40:49.147Z,18.94
2023-05-08T11:42:56.260Z,18.99
2023-05-08T11:45:10.166Z,19.02
2023-05-08T11:47:18.800Z,19.06
2023-05-08T11:49:28.093Z,19.09
2023-05-08T11:51:33.965Z,19.11
2023-05-08T11:53:38.174Z,19.12
2023-05-08T11:55:40.899Z,19.15
2023-05-08T11:57:43.699Z,19.21
2023-05-08T11:59:51.953Z,19.27
2023-05-08T12:04:01.874Z,19.37
2023-05-08T12:06:05.068Z,19.43
2023-05-08T12:08:13.879Z,19.48
2023-05-08T12:10:18.925Z,19.49
2023-05-08T12:12:22.893Z,19.54
2023-05-08T12:14:27.132Z,19.59
2023-05-08T12:16:29.922Z,19.64
2023-05-08T12:18:32.767Z,19.63
2023-05-08T12:20:35.727Z,19.60
2023-05-08T12:22:42.690Z,19.58
2023-05-08T12:24:47.120Z,19.59
2023-05-08T12:26:50.732Z,19.64
2023-05-08T12:28:56.977Z,19.67
2023-05-08T12:31:00.416Z,19.70
2023-05-08T12:33:05.384Z,19.74
2023-05-08T12:35:12.788Z,19.77
2023-05-08T12:37:28.791Z,19.78
2023-05-08T12:39:40.608Z,19.78
2023-05-08T12:41:48.636Z,19.80
2023-05-08T12:43:51.385Z,19.84
2023-05-08T12:45:56.118Z,19.86
2023-05-08T12:48:07.049Z,19.87
2023-05-08T12:50:12.828Z,19.92
2023-05-08T12:52:18.131Z,19.92
2023-05-08T12:54:33.291Z,19.96
2023-05-08T12:56:42.942Z,19.99
2023-05-08T12:58:45.527Z,19.98
2023-05-08T13:00:51.733Z,19.94
2023-05-08T13:02:55.926Z,19.92
2023-05-08T13:05:03.419Z,19.90
2023-05-08T13:07:06.570Z,19.88
2023-05-08T13:09:09.602Z,19.92
2023-05-08T13:11:12.597Z,19.93
2023-05-08T13:13:17.411Z,19.93
2023-05-08T13:15:22.992Z,19.93
2023-05-08T13:17:26.847Z,19.96
2023-05-08T13:19:29.883Z,19.99
2023-05-08T13:21:32.464Z,20.02
2023-05-08T13:23:34.989Z,20.03
2023-05-08T13:25:38.196Z,20.04
2023-05-08T13:27:41.019Z,20.04
2023-05-08T13:29:44.040Z,20.06
2023-05-08T13:31:47.756Z,20.06
2023-05-08T13:33:50.735Z,20.05
2023-05-08T13:35:55.433Z,20.06
2023-05-08T13:38:00.039Z,20.06
2023-05-08T13:40:02.921Z,20.04
2023-05-08T13:42:05.768Z,20.01
2023-05-08T13:44:08.301Z,19.99
2023-05-08T13:46:11.617Z,19.98
2023-05-08T13:48:14.716Z,19.97
2023-05-08T13:50:19.789Z,19.96
2023-05-08T13:52:22.474Z,19.97
2023-05-08T13:54:25.089Z,19.99
2023-05-08T13:56:27.698Z,20.01
2023-05-08T13:58:30.381Z,20.03
2023-05-08T14:00:34.962Z,20.04
2023-05-08T14:02:38.599Z,20.05
2023-05-08T14:04:42.491Z,20.06
2023-05-08T14:06:46.742Z,20.09
2023-05-08T14:08:52.292Z,20.10
2023-05-08T14:10:57.040Z,20.10
2023-05-08T14:12:59.719Z,20.10
2023-05-08T14:15:03.864Z,20.08
2023-05-08T14:17:08.762Z,20.07
2023-05-08T14:19:12.444Z,20.06
2023-05-08T14:21:15.460Z,20.07
2023-05-08T14:23:18.177Z,20.07
2023-05-08T14:25:20.908Z,20.07
2023-05-08T14:27:26.086Z,20.07
2023-05-08T14:29:29.889Z,20.05
2023-05-08T14:31:34.916Z,20.04
2023-05-08T14:33:37.461Z,20.04
2023-05-08T14:35:43.263Z,20.04
2023-05-08T14:37:45.918Z,20.04
2023-05-08T14:39:49.032Z,20.06
2023-05-08T14:42:05.691Z,20.07
2023-05-08T14:44:15.620Z,20.08
2023-05-08T14:46:18.413Z,20.09
2023-05-08T14:48:21.411Z,20.08
2023-05-08T14:50:24.187Z,20.08
2023-05-08T14:52:29.269Z,20.08
2023-05-08T14:54:32.151Z,20.08
2023-05-08T14:56:46.380Z,20.09
2023-05-08T14:58:51.190Z,20.12
2023-05-08T15:00:54.199Z,20.15
2023-05-08T15:03:00.245Z,20.16
2023-05-08T15:05:08.336Z,20.20
2023-05-08T15:07:14.720Z,20.24
2023-05-08T15:09:18.211Z,20.28
2023-05-08T15:13:26.013Z,20.40
2023-05-08T15:15:28.792Z,20.48
2023-05-08T15:17:31.503Z,20.59
2023-05-08T15:19:34.057Z,20.74
2023-05-08T15:21:36.614Z,20.92
2023-05-08T15:23:39.105Z,21.10
2023-05-08T15:25:41.785Z,21.27
2023-05-08T15:27:44.373Z,21.41
2023-05-08T15:29:50.874Z,21.56
2023-05-08T15:31:54.151Z,21.66
2023-05-08T15:33:58.015Z,21.73
2023-05-08T15:36:01.509Z,21.80
2023-05-08T15:38:11.078Z,21.84
2023-05-08T15:40:14.436Z,21.88
2023-05-08T15:42:17.528Z,21.87
2023-05-08T15:44:20.794Z,21.85
2023-05-08T15:46:25.340Z,21.87
2023-05-08T15:48:28.554Z,21.94
2023-05-08T15:50:33.630Z,22.09
2023-05-08T15:52:36.390Z,22.27
2023-05-08T15:54:39.317Z,22.41
2023-05-08T15:56:42.381Z,22.52
2023-05-08T15:58:44.897Z,22.69
2023-05-08T16:00:47.720Z,22.86
2023-05-08T16:02:50.352Z,23.04
2023-05-08T16:04:53.589Z,23.24
2023-05-08T16:07:04.916Z,23.42
2023-05-08T16:09:07.917Z,23.60
2023-05-08T16:11:11.151Z,23.76
2023-05-08T16:13:14.870Z,23.92
2023-05-08T16:15:19.224Z,24.01
2023-05-08T16:17:22.269Z,24.10
2023-05-08T16:19:25.233Z,24.19
2023-05-08T16:21:27.840Z,24.30
2023-05-08T16:23:30.404Z,24.38
2023-05-08T16:25:33.022Z,24.43
2023-05-08T16:27:37.060Z,24.44
2023-05-08T16:29:41.600Z,24.54
2023-05-08T16:31:44.505Z,24.65
2023-05-08T16:33:47.305Z,24.74
2023-05-08T16:35:50.597Z,24.66
2023-05-08T16:37:53.816Z,24.49
2023-05-08T16:39:56.356Z,24.31
2023-05-08T16:41:58.903Z,24.11
2023-05-08T16:44:01.417Z,23.92
2023-05-08T16:46:06.625Z,23.72
2023-05-08T16:48:11.266Z,23.52
2023-05-08T16:50:13.889Z,23.37
2023-05-08T16:52:17.628Z,23.22
2023-05-08T16:54:23.269Z,23.09
2023-05-08T16:56:25.788Z,22.98
2023-05-08T16:58:29.377Z,22.94
2023-05-08T17:00:32.846Z,23.15
2023-05-08T17:02:35.598Z,23.40
2023-05-08T17:04:38.670Z,23.69
2023-05-08T17:06:43.084Z,23.96
2023-05-08T17:08:47.017Z,24.25
2023-05-08T17:10:49.775Z,24.50
2023-05-08T17:12:55.196Z,24.72
2023-05-08T17:14:58.252Z,24.93
2023-05-08T17:17:01.575Z,25.14
2023-05-08T17:19:04.594Z,25.32
2023-05-08T17:21:08.366Z,25.50
2023-05-08T17:23:11.852Z,25.54
2023-05-08T17:25:15.259Z,25.33
2023-05-08T17:27:19.435Z,25.06
2023-05-08T17:29:22.089Z,24.82
2023-05-08T17:31:25.076Z,24.58
2023-05-08T17:33:28.880Z,24.34
2023-05-08T17:35:38.645Z,24.09
2023-05-08T17:37:42.780Z,23.85
2023-05-08T17:39:48.068Z,23.62
2023-05-08T17:41:51.909Z,23.42
2023-05-08T17:43:55.434Z,23.26
2023-05-08T17:46:00.286Z,23.12
2023-05-08T17:48:04.378Z,22.97
2023-05-08T17:50:09.422Z,22.84
2023-05-08T17:52:12.438Z,22.71
2023-05-08T17:54:15.901Z,22.59
2023-05-08T17:56:20.469Z,22.45
2023-05-08T17:58:23.694Z,22.31
2023-05-08T18:00:26.871Z,22.19
2023-05-08T18:02:29.348Z,22.08
2023-05-08T18:04:32.613Z,21.97
2023-05-08T18:06:35.560Z,21.80
2023-05-08T18:08:40.089Z,21.63
2023-05-08T18:10:43.909Z,21.51
2023-05-08T18:12:46.826Z,21.34
2023-05-08T18:14:49.397Z,21.21
2023-05-08T18:16:53.724Z,21.11
2023-05-08T18:18:56.277Z,21.03
2023-05-08T18:20:59.488Z,20.96
2023-05-08T18:23:02.562Z,20.84
2023-05-08T18:25:05.759Z,20.76
2023-05-08T18:27:08.361Z,20.71
2023-05-08T18:29:13.205Z,20.63
2023-05-08T18:31:16.532Z,20.57
2023-05-08T18:33:19.614Z,20.51
2023-05-08T18:35:23.611Z,20.43
2023-05-08T18:37:26.269Z,20.38
2023-05-08T18:39:29.318Z,20.32
2023-05-08T18:41:39.770Z,20.26
2023-05-08T18:43:43.332Z,20.20
2023-05-08T18:45:49.143Z,20.14
2023-05-08T18:47:57.281Z,20.09
2023-05-08T18:50:00.492Z,20.05
2023-05-08T18:52:06.614Z,20.00
2023-05-08T18:54:13.223Z,19.95
2023-05-08T18:56:16.637Z,19.90
2023-05-08T18:58:21.344Z,19.84
2023-05-08T19:00:24.171Z,19.80
2023-05-08T19:02:30.252Z,19.76
2023-05-08T19:04:33.157Z,19.73
2023-05-08T19:06:35.715Z,19.69
2023-05-08T19:08:38.710Z,19.65
2023-05-08T19:10:42.961Z,19.62
2023-05-08T19:12:46.235Z,19.59
2023-05-08T19:14:51.242Z,19.56
2023-05-08T19:16:56.971Z,19.52
2023-05-08T19:19:01.006Z,19.48
2023-05-08T19:21:04.912Z,19.43
2023-05-08T19:23:10.242Z,19.39
2023-05-08T19:25:16.119Z,19.36
2023-05-08T19:27:20.467Z,19.33
2023-05-08T19:29:26.354Z,19.29
2023-05-08T19:31:29.006Z,19.26
2023-05-08T19:33:33.272Z,19.19
2023-05-08T19:35:36.160Z,19.12
2023-05-08T19:37:38.940Z,19.05
2023-05-08T19:39:41.785Z,19.00
2023-05-08T19:41:44.668Z,18.95
2023-05-08T19:43:47.680Z,18.90
2023-05-08T19:45:50.649Z,18.84
2023-05-08T19:47:53.627Z,18.79
2023-05-08T19:49:59.149Z,18.73
2023-05-08T19:52:03.980Z,18.68
2023-05-08T19:54:07.452Z,18.64
2023-05-08T19:56:10.203Z,18.61
2023-05-08T19:58:14.296Z,18.58
2023-05-08T20:00:17.075Z,18.56
2023-05-08T20:02:21.772Z,18.53
2023-05-08T20:04:25.154Z,18.50
2023-05-08T20:06:29.712Z,18.46
2023-05-08T20:08:32.376Z,18.44
2023-05-08T20:10:35.103Z,18.42
2023-05-08T20:12:38.873Z,18.40
2023-05-08T20:14:44.705Z,18.38
2023-05-08T20:16:48.398Z,18.34
2023-05-08T20:18:53.954Z,18.33
2023-05-08T20:20:56.788Z,18.32
2023-05-08T20:23:00.173Z,18.30
2023-05-08T20:25:04.617Z,18.29
2023-05-08T20:27:07.965Z,18.26
2023-05-08T20:29:12.966Z,18.22
2023-05-08T20:31:17.573Z,18.21
2023-05-08T20:33:20.945Z,18.18
2023-05-08T20:35:23.914Z,18.12
2023-05-08T20:37:26.614Z,18.08
2023-05-08T20:39:29.457Z,18.04
2023-05-08T20:41:32.252Z,18.03
2023-05-08T20:43:35.117Z,18.01
2023-05-08T20:45:38.188Z,17.98
2023-05-08T20:47:40.915Z,17.97
2023-05-08T20:49:44.223Z,17.94
2023-05-08T20:51:47.892Z,17.92
2023-05-08T20:53:55.673Z,17.89
2023-05-08T20:56:05.920Z,17.87
2023-05-08T20:58:09.278Z,17.84
2023-05-08T21:00:15.418Z,17.82
2023-05-08T21:02:21.967Z,17.79
2023-05-08T21:04:24.896Z,17.77
2023-05-08T21:06:28.062Z,17.74
2023-05-08T21:08:33.793Z,17.72
2023-05-08T21:10:38.153Z,17.69
2023-05-08T21:12:48.395Z,17.67
2023-05-08T21:15:02.833Z,17.62
2023-05-08T21:17:06.531Z,17.55
2023-05-08T21:19:11.116Z,17.49
2023-05-08T21:21:22.375Z,17.46
2023-05-08T21:23:26.740Z,17.42
2023-05-08T21:25:29.534Z,17.38
2023-05-08T21:27:33.846Z,17.36
2023-05-08T21:29:41.523Z,17.31
2023-05-08T21:31:47.602Z,17.27
2023-05-08T21:33:51.271Z,17.20
2023-05-08T21:35:56.370Z,17.08
2023-05-08T21:37:59.120Z,16.99
2023-05-08T21:40:07.342Z,16.92
2023-05-08T21:42:11.233Z,16.91
2023-05-08T21:44:16.571Z,16.88
2023-05-08T21:46:22.738Z,16.86
2023-05-08T21:48:29.127Z,16.84
2023-05-08T21:50:37.540Z,16.81
2023-05-08T21:52:42.131Z,16.78
2023-05-08T21:54:46.371Z,16.76
2023-05-08T21:56:49.559Z,16.74
2023-05-08T21:58:52.785Z,16.67
2023-05-08T22:00:59.741Z,16.59
2023-05-08T22:03:05.101Z,16.54
2023-05-08T22:05:11.959Z,16.53
2023-05-08T22:07:22.528Z,16.52
2023-05-08T22:09:39.488Z,16.51
2023-05-08T22:11:44.384Z,16.48
2023-05-08T22:13:48.563Z,16.41
2023-05-08T22:15:52.574Z,16.34
2023-05-08T22:17:56.128Z,16.27
2023-05-08T22:19:59.161Z,16.24
2023-05-08T22:22:03.467Z,16.22
2023-05-08T22:24:06.742Z,16.21
2023-05-08T22:26:10.205Z,16.17
2023-05-08T22:28:13.045Z,16.11
2023-05-08T22:30:18.164Z,16.07
2023-05-08T22:32:21.018Z,16.01
2023-05-08T22:34:23.646Z,15.97
2023-05-08T22:36:26.205Z,15.93
2023-05-08T22:38:29.035Z,15.85
2023-05-08T22:40:31.909Z,15.80
2023-05-08T22:42:35.341Z,15.79
2023-05-08T22:44:37.971Z,15.78
2023-05-08T22:46:42.972Z,15.79
2023-05-08T22:48:46.145Z,15.81
2023-05-08T22:50:49.954Z,15.83
2023-05-08T22:52:54.185Z,15.85
2023-05-08T22:54:58.899Z,15.86
2023-05-08T22:57:02.881Z,15.85
2023-05-08T22:59:10.283Z,15.85
2023-05-08T23:01:18.322Z,15.85
2023-05-08T23:03:21.730Z,15.83
2023-05-08T23:05:25.243Z,15.78
2023-05-08T23:07:29.100Z,15.73
2023-05-08T23:09:31.735Z,15.72
2023-05-08T23:11:34.795Z,15.72
2023-05-08T23:13:39.145Z,15.70
2023-05-08T23:15:43.226Z,15.66
2023-05-08T23:17:48.591Z,15.62
2023-05-08T23:19:51.447Z,15.58
2023-05-08T23:21:54.023Z,15.55
2023-05-08T23:24:10.243Z,15.52
2023-05-08T23:26:13.658Z,15.46
2023-05-08T23:28:17.105Z,15.43
2023-05-08T23:30:21.104Z,15.41
2023-05-08T23:32:24.546Z,15.42
2023-05-08T23:34:30.387Z,15.44
2023-05-08T23:36:33.809Z,15.44
2023-05-08T23:38:36.391Z,15.44
2023-05-08T23:40:40.883Z,15.40
2023-05-08T23:42:44.069Z,15.36
2023-05-08T23:44:47.350Z,15.35
2023-05-08T23:46:51.289Z,15.33
2023-05-08T23:48:55.567Z,15.30
2023-05-08T23:50:59.050Z,15.26
2023-05-08T23:53:01.912Z,15.22
2023-05-08T23:55:06.570Z,15.17
2023-05-08T23:57:11.571Z,15.15
2023-05-08T23:59:15.476Z,15.14
